Time;durP1;ratioP1;P1;durP2;ratioP2;P2;SDS_P1;SDS_P2;PMS_P1;PMS_P2;Temp;Humidity;BMP_temperature;BMP_pressure;BME280_temperature;BME280_humidity;BME280_pressure;Samples;Min_cycle;Max_cycle;Signal;HPM_P1;HPM_P2
2023/07/07 00:00:13;;;;;;;;;6.33;6.33;;;;;;;;5023831;28;8853;-61
2023/07/07 00:02:39;;;;;;;;;8.33;8.33;;;;;;;;5026629;28;8814;-59
2023/07/07 00:05:04;;;;;;;;;7.00;6.67;;;;;;;;5027877;28;9901;-60
2023/07/07 00:07:31;;;;;;;;;7.00;6.00;;;;;;;;5020197;28;8863;-61
2023/07/07 00:09:56;;;;;;;;;7.33;6.67;;;;;;;;5027347;28;8915;-60
2023/07/07 00:12:21;;;;;;;;;8.33;8.33;;;;;;;;5023278;28;9073;-60
2023/07/07 00:14:47;;;;;;;;;12.33;12.33;;;;;;;;5022235;28;8867;-60
2023/07/07 00:17:16;;;;;;;;;7.00;7.00;;;;;;;;5030361;28;8889;-61
2023/07/07 00:19:41;;;;;;;;;6.33;5.33;;;;;;;;5027016;28;8820;-60
2023/07/07 00:22:06;;;;;;;;;6.00;6.00;;;;;;;;5024940;28;9192;-61
2023/07/07 00:24:32;;;;;;;;;8.00;8.00;;;;;;;;5017856;28;8814;-60
2023/07/07 00:26:57;;;;;;;;;5.00;5.00;;;;;;;;5017404;28;8846;-61
2023/07/07 00:29:22;;;;;;;;;7.00;7.00;;;;;;;;5017760;28;9567;-59
2023/07/07 00:31:48;;;;;;;;;6.00;6.00;;;;;;;;5023327;28;8826;-61
2023/07/07 00:34:13;;;;;;;;;10.00;9.00;;;;;;;;5026547;28;8928;-60
2023/07/07 00:36:38;;;;;;;;;5.67;5.67;;;;;;;;5013381;28;9592;-59
2023/07/07 00:39:03;;;;;;;;;8.33;7.00;;;;;;;;5016617;28;8842;-60
2023/07/07 00:41:29;;;;;;;;;6.00;6.00;;;;;;;;5023896;28;8862;-58
2023/07/07 00:44:04;;;;;;;;;6.00;6.00;;;;;;;;5027491;28;8823;-61
2023/07/07 00:46:30;;;;;;;;;6.67;6.67;;;;;;;;5027868;28;8807;-60
2023/07/07 00:48:56;;;;;;;;;12.67;12.33;;;;;;;;5020780;28;9141;-60
2023/07/07 00:51:25;;;;;;;;;6.00;6.00;;;;;;;;5023776;28;8838;-59
2023/07/07 00:53:51;;;;;;;;;7.33;7.33;;;;;;;;5010081;28;9120;-59
2023/07/07 00:56:21;;;;;;;;;7.00;7.00;;;;;;;;5017311;28;9142;-60
2023/07/07 00:58:50;;;;;;;;;6.00;5.50;;;;;;;;5027767;28;8965;-59
2023/07/07 01:01:17;;;;;;;;;8.33;6.67;;;;;;;;5026593;28;9146;-59
2023/07/07 01:03:48;;;;;;;;;5.33;5.33;;;;;;;;5027544;28;9178;-59
2023/07/07 01:06:17;;;;;;;;;6.00;6.00;;;;;;;;5015321;28;9037;-59
2023/07/07 01:08:44;;;;;;;;;7.67;6.00;;;;;;;;5025669;28;10465;-60
2023/07/07 01:11:09;;;;;;;;;5.33;4.67;;;;;;;;5021500;28;9050;-59
2023/07/07 01:13:35;;;;;;;;;5.33;5.33;;;;;;;;5020809;28;10227;-60
2023/07/07 01:16:15;;;;;;;;;7.00;6.67;;;;;;;;5027229;28;8827;-60
2023/07/07 01:18:57;;;;;;;;;6.00;5.00;;;;;;;;5023869;28;8897;-60
2023/07/07 01:21:29;;;;;;;;;5.00;4.67;;;;;;;;5012235;28;9282;-60
2023/07/07 01:24:06;;;;;;;;;8.00;7.67;;;;;;;;5027518;28;9199;-60
2023/07/07 01:26:50;;;;;;;;;7.00;6.00;;;;;;;;5019057;28;9322;-60
2023/07/07 01:29:18;;;;;;;;;6.00;5.00;;;;;;;;5017219;28;9222;-59
2023/07/07 01:31:57;;;;;;;;;6.00;6.00;;;;;;;;5023443;28;9345;-62
2023/07/07 01:34:22;;;;;;;;;6.00;6.00;;;;;;;;5024494;28;9659;-61
2023/07/07 01:36:47;;;;;;;;;6.00;5.00;;;;;;;;5013259;28;9158;-60
2023/07/07 01:39:13;;;;;;;;;5.67;4.33;;;;;;;;5022891;28;8831;-60
2023/07/07 01:41:57;;;;;;;;;6.00;6.00;;;;;;;;5012276;28;8856;-60
2023/07/07 01:44:41;;;;;;;;;7.00;7.00;;;;;;;;5027783;28;8797;-59
2023/07/07 01:47:17;;;;;;;;;5.00;5.00;;;;;;;;5026147;28;9210;-60
2023/07/07 01:49:52;;;;;;;;;6.00;6.00;;;;;;;;5029256;28;9046;-59
2023/07/07 01:52:27;;;;;;;;;6.00;6.00;;;;;;;;5029112;28;9381;-59
2023/07/07 01:54:57;;;;;;;;;6.33;6.00;;;;;;;;5015407;28;9304;-59
2023/07/07 01:57:24;;;;;;;;;5.33;5.33;;;;;;;;5029303;28;9112;-60
2023/07/07 01:59:50;;;;;;;;;5.67;5.67;;;;;;;;5026115;28;9347;-61
2023/07/07 02:02:18;;;;;;;;;5.33;5.33;;;;;;;;5021391;28;9185;-61
2023/07/07 02:04:43;;;;;;;;;6.67;5.67;;;;;;;;5029032;28;8815;-59
2023/07/07 02:07:08;;;;;;;;;7.00;6.67;;;;;;;;5022932;28;10077;-60
2023/07/07 02:09:34;;;;;;;;;7.67;6.67;;;;;;;;5032256;28;8893;-60
2023/07/07 02:11:59;;;;;;;;;6.00;6.00;;;;;;;;5030144;28;8839;-60
2023/07/07 02:14:24;;;;;;;;;8.33;7.00;;;;;;;;5029290;28;8858;-59
2023/07/07 02:16:49;;;;;;;;;6.33;6.33;;;;;;;;5018513;28;10090;-59
2023/07/07 02:19:15;;;;;;;;;7.00;7.00;;;;;;;;5031769;28;8934;-59
2023/07/07 02:21:40;;;;;;;;;6.00;6.00;;;;;;;;5027357;28;8834;-60
2023/07/07 02:24:05;;;;;;;;;6.00;6.00;;;;;;;;5021168;28;8837;-59
2023/07/07 02:26:30;;;;;;;;;6.00;5.33;;;;;;;;5018674;28;8807;-59
2023/07/07 02:28:56;;;;;;;;;5.00;5.00;;;;;;;;5026012;28;8827;-59
2023/07/07 02:31:24;;;;;;;;;6.33;6.00;;;;;;;;5028852;28;8888;-60
2023/07/07 02:33:49;;;;;;;;;5.67;5.67;;;;;;;;5031087;28;9655;-60
2023/07/07 02:36:14;;;;;;;;;8.00;8.00;;;;;;;;5027948;28;9234;-60
2023/07/07 02:38:40;;;;;;;;;5.33;5.33;;;;;;;;5019258;28;8825;-60
2023/07/07 02:41:05;;;;;;;;;6.00;6.00;;;;;;;;5025017;28;8838;-58
2023/07/07 02:43:30;;;;;;;;;5.00;5.00;;;;;;;;5029192;28;9664;-58
2023/07/07 02:45:56;;;;;;;;;6.00;6.00;;;;;;;;5028764;28;8823;-60
2023/07/07 02:48:21;;;;;;;;;6.00;6.00;;;;;;;;5028014;28;8910;-60
2023/07/07 02:50:57;;;;;;;;;5.33;5.00;;;;;;;;5025392;28;8815;-59
2023/07/07 02:53:24;;;;;;;;;4.67;4.67;;;;;;;;5020405;28;8799;-60
2023/07/07 02:55:49;;;;;;;;;6.33;6.00;;;;;;;;5028565;28;8968;-60
2023/07/07 02:58:14;;;;;;;;;7.00;6.33;;;;;;;;5028017;28;9189;-60
2023/07/07 03:00:39;;;;;;;;;6.33;6.33;;;;;;;;5023320;28;8827;-60
2023/07/07 03:03:07;;;;;;;;;7.00;7.00;;;;;;;;5020289;28;8803;-59
2023/07/07 03:05:32;;;;;;;;;6.00;5.00;;;;;;;;5011873;28;8802;-60
2023/07/07 03:07:57;;;;;;;;;7.67;7.67;;;;;;;;5016199;28;9247;-61
2023/07/07 03:10:22;;;;;;;;;8.67;7.33;;;;;;;;5029059;28;8827;-60
2023/07/07 03:12:48;;;;;;;;;8.00;8.00;;;;;;;;5027356;28;8847;-61
2023/07/07 03:15:13;;;;;;;;;7.00;7.00;;;;;;;;5025955;28;8862;-61
2023/07/07 03:17:39;;;;;;;;;7.33;7.00;;;;;;;;5027733;28;8854;-60
2023/07/07 03:20:05;;;;;;;;;27.50;27.25;;;;;;;;5027667;28;8827;-59
2023/07/07 03:22:31;;;;;;;;;11.00;11.00;;;;;;;;5019898;28;10495;-60
2023/07/07 03:24:56;;;;;;;;;7.33;6.00;;;;;;;;5028594;28;9850;-61
2023/07/07 03:27:21;;;;;;;;;20.75;20.75;;;;;;;;5029801;28;8832;-59
2023/07/07 03:29:48;;;;;;;;;7.00;6.00;;;;;;;;5022375;28;8814;-59
2023/07/07 03:32:14;;;;;;;;;8.00;7.00;;;;;;;;5014998;28;8818;-60
2023/07/07 03:34:42;;;;;;;;;14.33;14.33;;;;;;;;5028429;28;9540;-60
2023/07/07 03:37:07;;;;;;;;;5.00;5.00;;;;;;;;5022657;28;9720;-59
2023/07/07 03:39:32;;;;;;;;;12.67;11.33;;;;;;;;5019542;28;9212;-60
2023/07/07 03:41:58;;;;;;;;;8.00;6.33;;;;;;;;5015588;28;8918;-60
2023/07/07 03:44:23;;;;;;;;;6.00;6.00;;;;;;;;5023332;28;8866;-60
2023/07/07 03:46:48;;;;;;;;;4.33;4.33;;;;;;;;5027881;28;8845;-60
2023/07/07 03:49:13;;;;;;;;;5.00;5.00;;;;;;;;5028623;28;9587;-61
2023/07/07 03:51:39;;;;;;;;;14.33;14.33;;;;;;;;5013694;28;8979;-61
2023/07/07 03:54:04;;;;;;;;;5.00;5.00;;;;;;;;5024885;28;9655;-61
2023/07/07 03:56:30;;;;;;;;;15.75;11.00;;;;;;;;5017648;28;8795;-60
2023/07/07 03:58:55;;;;;;;;;7.67;7.67;;;;;;;;5020654;28;10004;-60
2023/07/07 04:01:20;;;;;;;;;55.25;43.25;;;;;;;;5025756;28;8911;-61
2023/07/07 04:03:47;;;;;;;;;11.33;9.33;;;;;;;;5025457;28;8851;-61
2023/07/07 04:06:13;;;;;;;;;7.67;6.67;;;;;;;;5021145;28;8787;-60
2023/07/07 04:08:38;;;;;;;;;6.67;5.33;;;;;;;;5024227;28;9098;-61
2023/07/07 04:11:05;;;;;;;;;10.00;8.67;;;;;;;;5027880;28;9165;-60
2023/07/07 04:13:32;;;;;;;;;5.33;5.33;;;;;;;;5027521;28;8826;-60
2023/07/07 04:16:17;;;;;;;;;7.33;6.33;;;;;;;;5027648;28;9061;-60
2023/07/07 04:18:43;;;;;;;;;9.00;6.67;;;;;;;;5018877;28;9132;-61
2023/07/07 04:21:10;;;;;;;;;8.00;7.67;;;;;;;;5029711;28;9153;-60
2023/07/07 04:23:36;;;;;;;;;7.00;6.00;;;;;;;;5022054;28;8797;-60
2023/07/07 04:26:01;;;;;;;;;13.67;13.67;;;;;;;;5017165;28;9180;-61
2023/07/07 04:28:29;;;;;;;;;8.33;6.33;;;;;;;;5021501;28;9589;-60
2023/07/07 04:30:55;;;;;;;;;9.67;9.67;;;;;;;;5016088;28;8803;-61
2023/07/07 04:33:22;;;;;;;;;3.33;3.00;;;;;;;;5022647;28;9393;-59
2023/07/07 04:35:54;;;;;;;;;7.00;6.00;;;;;;;;5011313;28;8766;-60
2023/07/07 04:38:21;;;;;;;;;7.00;5.67;;;;;;;;5011400;28;9371;-60
2023/07/07 04:40:46;;;;;;;;;5.33;5.33;;;;;;;;5012265;28;10036;-61
2023/07/07 04:43:11;;;;;;;;;6.00;5.00;;;;;;;;5029617;28;9127;-59
2023/07/07 04:45:37;;;;;;;;;6.33;6.00;;;;;;;;5017574;28;8799;-60
2023/07/07 04:48:02;;;;;;;;;5.00;5.00;;;;;;;;5029619;28;8834;-61
2023/07/07 04:50:27;;;;;;;;;6.67;6.33;;;;;;;;5030438;28;8984;-60
2023/07/07 04:52:52;;;;;;;;;5.00;4.33;;;;;;;;5030389;28;9529;-60
2023/07/07 04:55:17;;;;;;;;;5.67;5.67;;;;;;;;5030833;28;8780;-59
2023/07/07 04:57:43;;;;;;;;;5.00;5.00;;;;;;;;5028701;28;8924;-60
2023/07/07 05:00:08;;;;;;;;;9.33;8.00;;;;;;;;5028747;28;8825;-60
2023/07/07 05:02:35;;;;;;;;;9.00;8.00;;;;;;;;5027617;28;8847;-61
2023/07/07 05:05:00;;;;;;;;;5.67;4.00;;;;;;;;5029022;28;8811;-61
2023/07/07 05:07:26;;;;;;;;;7.33;7.33;;;;;;;;5020094;28;9209;-62
2023/07/07 05:09:51;;;;;;;;;7.00;6.33;;;;;;;;5024456;28;8819;-59
2023/07/07 05:12:18;;;;;;;;;6.67;6.00;;;;;;;;5023499;28;8860;-60
2023/07/07 05:14:43;;;;;;;;;7.67;7.00;;;;;;;;5019748;28;8792;-60
2023/07/07 05:17:09;;;;;;;;;17.25;17.25;;;;;;;;5025727;28;9193;-59
2023/07/07 05:19:34;;;;;;;;;9.00;9.00;;;;;;;;5013453;28;8821;-59
2023/07/07 05:21:59;;;;;;;;;12.75;12.75;;;;;;;;5024108;28;8913;-60
2023/07/07 05:24:24;;;;;;;;;6.00;6.00;;;;;;;;5031223;28;8918;-61
2023/07/07 05:26:50;;;;;;;;;12.00;11.50;;;;;;;;5029925;28;8803;-60
2023/07/07 05:29:15;;;;;;;;;7.33;7.33;;;;;;;;5028941;28;8845;-61
2023/07/07 05:31:40;;;;;;;;;7.33;6.67;;;;;;;;5025719;28;8839;-61
2023/07/07 05:34:06;;;;;;;;;7.00;7.00;;;;;;;;5028629;28;8826;-61
2023/07/07 05:36:31;;;;;;;;;7.33;6.33;;;;;;;;5028383;28;8829;-59
2023/07/07 05:38:56;;;;;;;;;11.00;8.00;;;;;;;;5025110;28;8855;-60
2023/07/07 05:41:21;;;;;;;;;7.00;7.00;;;;;;;;5023044;28;8839;-61
2023/07/07 05:43:47;;;;;;;;;6.33;6.00;;;;;;;;5022019;28;8822;-61
2023/07/07 05:46:13;;;;;;;;;8.00;6.33;;;;;;;;5030664;28;8854;-60
2023/07/07 05:48:39;;;;;;;;;6.67;6.00;;;;;;;;5028747;28;8807;-60
2023/07/07 05:51:05;;;;;;;;;9.00;8.33;;;;;;;;5025836;28;9764;-59
2023/07/07 05:53:31;;;;;;;;;8.00;7.67;;;;;;;;5030287;28;8877;-60
2023/07/07 05:55:58;;;;;;;;;9.00;8.00;;;;;;;;5032008;28;9042;-59
2023/07/07 05:58:23;;;;;;;;;6.00;6.00;;;;;;;;5021423;28;8887;-58
2023/07/07 06:00:48;;;;;;;;;9.00;9.00;;;;;;;;5023106;28;9802;-60
2023/07/07 06:03:14;;;;;;;;;17.33;15.67;;;;;;;;5032128;28;8812;-59
2023/07/07 06:05:39;;;;;;;;;8.33;8.33;;;;;;;;5027131;28;8811;-60
2023/07/07 06:08:04;;;;;;;;;4.67;4.33;;;;;;;;5018837;28;8862;-59
2023/07/07 06:10:30;;;;;;;;;8.67;8.00;;;;;;;;5025501;28;8809;-60
2023/07/07 06:12:55;;;;;;;;;7.33;5.33;;;;;;;;5026386;28;8806;-60
2023/07/07 06:15:21;;;;;;;;;6.67;6.00;;;;;;;;5019267;28;8922;-59
2023/07/07 06:17:46;;;;;;;;;6.00;5.33;;;;;;;;5026687;28;9033;-60
2023/07/07 06:20:12;;;;;;;;;4.33;4.33;;;;;;;;5025057;28;8810;-60
2023/07/07 06:22:37;;;;;;;;;8.00;8.00;;;;;;;;5028679;28;8885;-59
2023/07/07 06:25:03;;;;;;;;;6.00;5.67;;;;;;;;5032329;28;8894;-59
2023/07/07 06:27:28;;;;;;;;;8.00;7.67;;;;;;;;5017173;28;8809;-60
2023/07/07 06:29:53;;;;;;;;;6.00;5.67;;;;;;;;5022210;28;9724;-59
2023/07/07 06:32:19;;;;;;;;;8.00;7.00;;;;;;;;5021151;28;8818;-59
2023/07/07 06:34:44;;;;;;;;;6.33;6.33;;;;;;;;5026245;28;8819;-60
2023/07/07 06:37:09;;;;;;;;;4.00;4.00;;;;;;;;5020152;28;8841;-59
2023/07/07 06:39:34;;;;;;;;;6.00;6.00;;;;;;;;5022376;28;9654;-60
2023/07/07 06:42:00;;;;;;;;;4.67;4.00;;;;;;;;5022374;28;9816;-60
2023/07/07 06:44:26;;;;;;;;;7.67;7.33;;;;;;;;5021333;28;8813;-60
2023/07/07 06:46:51;;;;;;;;;7.33;6.33;;;;;;;;5021433;28;8922;-60
2023/07/07 06:49:16;;;;;;;;;6.00;6.00;;;;;;;;5029433;28;8823;-61
2023/07/07 06:51:42;;;;;;;;;8.67;7.67;;;;;;;;5021387;28;9609;-59
2023/07/07 06:54:07;;;;;;;;;5.33;5.33;;;;;;;;5025943;28;8827;-60
2023/07/07 06:56:32;;;;;;;;;7.67;7.33;;;;;;;;5026158;28;8873;-60
2023/07/07 06:58:57;;;;;;;;;6.00;5.33;;;;;;;;5018241;28;8936;-60
2023/07/07 07:01:22;;;;;;;;;8.00;7.00;;;;;;;;5025108;28;8869;-59
2023/07/07 07:03:48;;;;;;;;;6.00;6.00;;;;;;;;5027209;28;8897;-59
2023/07/07 07:06:13;;;;;;;;;7.00;6.33;;;;;;;;5023902;28;8807;-60
2023/07/07 07:08:38;;;;;;;;;5.00;5.00;;;;;;;;5024029;28;8963;-60
2023/07/07 07:11:03;;;;;;;;;5.00;4.00;;;;;;;;5024463;28;9473;-59
2023/07/07 07:13:29;;;;;;;;;6.00;6.00;;;;;;;;5028155;28;8839;-60
2023/07/07 07:15:54;;;;;;;;;6.00;6.00;;;;;;;;5024303;28;8850;-60
2023/07/07 07:18:20;;;;;;;;;8.33;7.00;;;;;;;;5024378;28;8836;-59
2023/07/07 07:20:48;;;;;;;;;7.00;6.00;;;;;;;;5017536;28;8843;-59
2023/07/07 07:23:14;;;;;;;;;6.00;6.00;;;;;;;;5027376;28;8921;-60
2023/07/07 07:25:40;;;;;;;;;6.33;5.67;;;;;;;;5022815;28;9216;-59
2023/07/07 07:28:05;;;;;;;;;9.00;7.00;;;;;;;;5026312;28;8842;-60
2023/07/07 07:30:30;;;;;;;;;7.67;7.67;;;;;;;;5027345;28;10857;-59
2023/07/07 07:32:57;;;;;;;;;8.33;7.67;;;;;;;;5025136;28;8786;-59
2023/07/07 07:35:22;;;;;;;;;7.67;6.33;;;;;;;;5024952;28;8882;-61
2023/07/07 07:37:47;;;;;;;;;7.00;6.00;;;;;;;;5022962;28;9296;-60
2023/07/07 07:40:12;;;;;;;;;6.00;6.00;;;;;;;;5020507;28;8807;-60
2023/07/07 07:42:38;;;;;;;;;7.00;6.67;;;;;;;;5018662;28;8921;-59
2023/07/07 07:45:03;;;;;;;;;8.67;8.67;;;;;;;;5019009;28;8818;-60
2023/07/07 07:47:28;;;;;;;;;5.00;5.00;;;;;;;;5023012;28;8834;-60
2023/07/07 07:49:54;;;;;;;;;7.33;7.00;;;;;;;;5025500;28;8818;-59
2023/07/07 07:52:19;;;;;;;;;7.00;6.67;;;;;;;;5028736;28;8850;-60
2023/07/07 07:54:44;;;;;;;;;7.67;7.00;;;;;;;;5024355;28;9584;-58
2023/07/07 07:57:09;;;;;;;;;8.67;8.67;;;;;;;;5022400;28;8862;-59
2023/07/07 07:59:35;;;;;;;;;7.33;6.67;;;;;;;;5019095;28;8904;-72
2023/07/07 08:02:00;;;;;;;;;8.00;8.00;;;;;;;;5019957;28;8949;-71
2023/07/07 08:04:25;;;;;;;;;7.00;6.33;;;;;;;;5019026;28;8818;-71
2023/07/07 08:06:52;;;;;;;;;9.33;8.67;;;;;;;;5022096;28;8822;-59
2023/07/07 08:09:18;;;;;;;;;7.33;7.33;;;;;;;;5021810;28;8892;-59
2023/07/07 08:11:43;;;;;;;;;8.33;8.33;;;;;;;;5020400;28;8989;-59
2023/07/07 08:14:11;;;;;;;;;8.33;8.00;;;;;;;;5027539;28;9310;-59
2023/07/07 08:16:37;;;;;;;;;8.67;8.67;;;;;;;;5027903;28;8887;-59
2023/07/07 08:19:02;;;;;;;;;7.00;6.00;;;;;;;;5024478;28;8967;-60
2023/07/07 08:21:27;;;;;;;;;8.67;8.33;;;;;;;;5018590;28;8875;-60
2023/07/07 08:23:52;;;;;;;;;8.67;7.33;;;;;;;;5016102;28;8837;-60
2023/07/07 08:26:17;;;;;;;;;8.00;8.00;;;;;;;;5011368;28;8862;-59
2023/07/07 08:28:43;;;;;;;;;7.33;7.33;;;;;;;;5009752;28;8821;-60
2023/07/07 08:31:08;;;;;;;;;8.67;8.67;;;;;;;;5011262;28;8830;-59
2023/07/07 08:33:33;;;;;;;;;7.00;7.00;;;;;;;;5009435;28;9063;-58
2023/07/07 08:35:58;;;;;;;;;7.00;7.00;;;;;;;;5016477;28;8854;-60
2023/07/07 08:38:24;;;;;;;;;7.00;6.67;;;;;;;;5022615;28;8907;-59
2023/07/07 08:40:54;;;;;;;;;9.00;9.00;;;;;;;;5028544;28;8957;-58
2023/07/07 08:43:21;;;;;;;;;8.25;8.25;;;;;;;;5030575;28;8859;-59
2023/07/07 08:46:00;;;;;;;;;7.00;7.00;;;;;;;;5030762;28;8795;-58
2023/07/07 08:48:44;;;;;;;;;7.00;7.00;;;;;;;;5030480;28;9083;-59
2023/07/07 08:51:29;;;;;;;;;6.67;6.67;;;;;;;;5027031;28;8906;-58
2023/07/07 08:54:26;;;;;;;;;7.00;7.00;;;;;;;;5027491;28;9173;-60
2023/07/07 08:56:55;;;;;;;;;10.00;9.33;;;;;;;;5017715;28;9099;-59
2023/07/07 08:59:40;;;;;;;;;9.00;9.00;;;;;;;;5036899;28;8961;-58
2023/07/07 09:02:25;;;;;;;;;9.00;8.00;;;;;;;;5036041;28;9107;-59
2023/07/07 09:05:01;;;;;;;;;11.33;10.33;;;;;;;;5036886;28;9238;-60
2023/07/07 09:07:49;;;;;;;;;10.00;8.33;;;;;;;;5035844;28;8992;-59
2023/07/07 09:10:26;;;;;;;;;7.00;7.00;;;;;;;;5036558;28;10379;-59
2023/07/07 09:13:12;;;;;;;;;8.00;8.00;;;;;;;;5017724;28;9231;-59
2023/07/07 09:15:39;;;;;;;;;10.33;9.00;;;;;;;;5018050;28;9236;-59
2023/07/07 09:18:17;;;;;;;;;8.00;8.00;;;;;;;;5033803;28;9227;-59
2023/07/07 09:20:42;;;;;;;;;9.67;9.67;;;;;;;;5017878;28;9143;-59
2023/07/07 09:23:14;;;;;;;;;9.00;8.00;;;;;;;;5016733;28;9145;-60
2023/07/07 09:25:41;;;;;;;;;10.67;9.33;;;;;;;;5016537;28;8805;-59
2023/07/07 09:28:10;;;;;;;;;6.33;6.33;;;;;;;;5016819;28;9184;-59
2023/07/07 09:30:40;;;;;;;;;8.33;8.33;;;;;;;;5016162;28;9211;-59
2023/07/07 09:33:10;;;;;;;;;9.00;9.00;;;;;;;;5027579;28;9229;-59
2023/07/07 09:35:40;;;;;;;;;8.00;8.00;;;;;;;;5016639;28;9132;-59
2023/07/07 09:38:24;;;;;;;;;8.00;8.00;;;;;;;;5016510;28;9218;-59
2023/07/07 09:41:09;;;;;;;;;8.33;8.33;;;;;;;;5025193;28;8976;-59
2023/07/07 09:43:37;;;;;;;;;9.33;9.33;;;;;;;;5035629;28;9254;-59
2023/07/07 09:46:20;;;;;;;;;9.67;8.33;;;;;;;;5033937;28;9235;-59
2023/07/07 09:48:58;;;;;;;;;9.67;9.00;;;;;;;;5033467;28;9164;-58
2023/07/07 09:51:26;;;;;;;;;8.33;7.67;;;;;;;;5016875;28;9127;-59
2023/07/07 09:53:51;;;;;;;;;10.33;10.33;;;;;;;;5028116;28;9207;-58
2023/07/07 09:56:20;;;;;;;;;11.67;10.67;;;;;;;;5035632;28;9448;-59
2023/07/07 09:58:50;;;;;;;;;14.00;10.00;;;;;;;;5034587;28;8835;-59
2023/07/07 10:01:16;;;;;;;;;12.67;12.67;;;;;;;;5034457;28;9145;-59
2023/07/07 10:03:45;;;;;;;;;11.33;11.00;;;;;;;;5019750;28;9312;-59
2023/07/07 10:06:20;;;;;;;;;8.00;8.00;;;;;;;;5026646;28;8833;-59
2023/07/07 10:08:45;;;;;;;;;12.67;11.33;;;;;;;;5030923;28;9043;-58
2023/07/07 10:11:10;;;;;;;;;11.00;10.00;;;;;;;;5028488;28;10074;-59
2023/07/07 10:13:35;;;;;;;;;10.67;10.67;;;;;;;;5012255;28;8832;-59
2023/07/07 10:16:04;;;;;;;;;11.67;11.33;;;;;;;;5011322;28;8959;-59
2023/07/07 10:18:32;;;;;;;;;12.00;10.67;;;;;;;;5010806;28;9580;-59
2023/07/07 10:20:59;;;;;;;;;11.33;10.00;;;;;;;;5027961;28;9164;-59
2023/07/07 10:23:26;;;;;;;;;10.00;9.67;;;;;;;;5021803;28;9281;-59
2023/07/07 10:25:51;;;;;;;;;11.67;11.00;;;;;;;;5012143;28;9669;-59
2023/07/07 10:28:18;;;;;;;;;12.00;12.00;;;;;;;;5012433;28;9967;-58
2023/07/07 10:30:44;;;;;;;;;12.67;12.00;;;;;;;;5013408;28;8829;-59
2023/07/07 10:33:11;;;;;;;;;11.00;11.00;;;;;;;;5015426;28;9196;-59
2023/07/07 10:35:36;;;;;;;;;10.00;9.00;;;;;;;;5015162;28;9353;-58
2023/07/07 10:38:03;;;;;;;;;10.33;10.33;;;;;;;;5014891;28;9275;-59
2023/07/07 10:40:28;;;;;;;;;9.00;9.00;;;;;;;;5015491;28;8828;-59
2023/07/07 10:42:55;;;;;;;;;9.00;8.67;;;;;;;;5015375;28;9280;-59
2023/07/07 10:45:20;;;;;;;;;2.33;2.33;;;;;;;;5031373;28;8809;-60
2023/07/07 10:47:46;;;;;;;;;10.00;10.00;;;;;;;;5014666;28;9235;-58
2023/07/07 10:50:13;;;;;;;;;9.33;9.33;;;;;;;;5013710;28;8810;-59
2023/07/07 10:52:57;;;;;;;;;8.00;7.00;;;;;;;;5015833;28;9281;-58
2023/07/07 10:55:31;;;;;;;;;10.00;10.00;;;;;;;;5015715;28;8917;-59
2023/07/07 10:57:59;;;;;;;;;8.67;8.67;;;;;;;;5015403;28;9686;-59
2023/07/07 11:00:32;;;;;;;;;10.00;9.33;;;;;;;;5015585;28;9178;-60
2023/07/07 11:03:11;;;;;;;;;7.00;7.00;;;;;;;;5018015;28;8971;-59
2023/07/07 11:05:37;;;;;;;;;11.00;11.00;;;;;;;;5020959;28;9387;-59
2023/07/07 11:08:05;;;;;;;;;9.00;9.00;;;;;;;;5024133;28;9012;-59
2023/07/07 11:10:33;;;;;;;;;8.67;7.67;;;;;;;;5024683;28;8814;-59
2023/07/07 11:13:16;;;;;;;;;10.00;10.00;;;;;;;;5024246;28;9675;-59
2023/07/07 11:15:53;;;;;;;;;10.33;10.33;;;;;;;;5024018;28;9220;-59
2023/07/07 11:18:24;;;;;;;;;9.00;7.00;;;;;;;;5024131;28;9042;-60
2023/07/07 11:21:04;;;;;;;;;8.00;7.75;;;;;;;;5023430;28;8994;-59
2023/07/07 11:23:46;;;;;;;;;8.00;8.00;;;;;;;;5023970;28;8807;-58
2023/07/07 11:26:31;;;;;;;;;7.67;6.33;;;;;;;;5006275;28;9044;-59
2023/07/07 11:29:14;;;;;;;;;5.00;5.00;;;;;;;;5023575;28;9054;-59
2023/07/07 11:31:50;;;;;;;;;5.25;5.25;;;;;;;;5020244;28;8861;-60
2023/07/07 11:34:28;;;;;;;;;9.33;9.00;;;;;;;;5023547;28;9406;-61
2023/07/07 11:37:14;;;;;;;;;8.00;7.67;;;;;;;;5023845;28;9046;-60
2023/07/07 11:39:52;;;;;;;;;9.25;7.00;;;;;;;;5024058;28;9020;-60
2023/07/07 11:42:32;;;;;;;;;6.25;5.50;;;;;;;;5023816;28;8834;-60
2023/07/07 11:45:16;;;;;;;;;9.00;9.00;;;;;;;;5022898;28;8807;-60
2023/07/07 11:47:44;;;;;;;;;7.25;7.25;;;;;;;;5023544;28;8992;-61
2023/07/07 11:50:21;;;;;;;;;8.00;8.00;;;;;;;;5023788;28;8849;-60
2023/07/07 11:52:54;;;;;;;;;6.00;5.33;;;;;;;;5020653;28;8923;-60
2023/07/07 11:55:38;;;;;;;;;8.00;8.00;;;;;;;;5024353;28;9709;-60
2023/07/07 11:58:03;;;;;;;;;6.67;6.67;;;;;;;;5017240;28;51082;-61
2023/07/07 12:00:46;;;;;;;;;9.67;9.33;;;;;;;;5022147;28;9100;-59
2023/07/07 12:03:30;;;;;;;;;7.33;7.33;;;;;;;;5018865;28;43168;-58
2023/07/07 12:05:58;;;;;;;;;6.00;5.33;;;;;;;;5024828;28;32511;-58
2023/07/07 12:08:29;;;;;;;;;7.00;7.00;;;;;;;;5020606;28;31231;-59
2023/07/07 12:10:56;;;;;;;;;8.33;7.67;;;;;;;;5023643;28;8832;-59
2023/07/07 12:13:25;;;;;;;;;8.00;8.00;;;;;;;;5021510;28;9342;-58
2023/07/07 12:15:57;;;;;;;;;7.33;7.33;;;;;;;;5023676;28;9130;-58
2023/07/07 12:18:25;;;;;;;;;10.33;9.33;;;;;;;;5021826;28;9293;-57
2023/07/07 12:21:08;;;;;;;;;10.00;9.00;;;;;;;;5019852;28;9157;-59
2023/07/07 12:23:37;;;;;;;;;8.00;7.00;;;;;;;;5019226;28;9114;-58
2023/07/07 12:26:22;;;;;;;;;8.67;8.67;;;;;;;;5022707;28;9197;-66
2023/07/07 12:28:49;;;;;;;;;8.00;7.67;;;;;;;;5022003;28;9297;-58
2023/07/07 12:31:16;;;;;;;;;7.00;7.00;;;;;;;;5021829;28;9153;-58
2023/07/07 12:33:41;;;;;;;;;8.33;7.33;;;;;;;;5023014;28;9401;-58
2023/07/07 12:36:08;;;;;;;;;7.00;7.00;;;;;;;;5018976;28;27828;-59
2023/07/07 12:38:34;;;;;;;;;3.67;3.67;;;;;;;;4996773;28;51429;-58
2023/07/07 12:41:05;;;;;;;;;7.33;7.00;;;;;;;;4983493;28;51184;-58
2023/07/07 12:43:35;;;;;;;;;6.33;6.33;;;;;;;;4997704;28;51373;-58
2023/07/07 12:46:01;;;;;;;;;4.33;4.00;;;;;;;;5000370;28;50342;-58
2023/07/07 12:48:28;;;;;;;;;5.00;4.33;;;;;;;;4991105;28;51733;-59
2023/07/07 12:50:57;;;;;;;;;8.00;8.00;;;;;;;;5000375;28;32043;-59
2023/07/07 12:53:26;;;;;;;;;7.33;6.67;;;;;;;;5001719;28;33592;-58
2023/07/07 12:56:02;;;;;;;;;5.67;4.00;;;;;;;;5002020;28;32193;-59
2023/07/07 12:58:36;;;;;;;;;6.67;6.33;;;;;;;;5001757;28;31993;-58
2023/07/07 13:01:14;;;;;;;;;7.33;7.33;;;;;;;;5001340;28;32044;-59
2023/07/07 13:03:58;;;;;;;;;6.00;6.00;;;;;;;;5001480;28;31930;-59
2023/07/07 13:06:42;;;;;;;;;7.67;6.67;;;;;;;;5000795;28;32037;-58
2023/07/07 13:09:09;;;;;;;;;7.33;7.33;;;;;;;;5001426;28;32029;-59
2023/07/07 13:11:35;;;;;;;;;8.67;8.67;;;;;;;;5001302;28;32285;-58
2023/07/07 13:14:00;;;;;;;;;5.67;5.67;;;;;;;;5000508;28;32591;-57
2023/07/07 13:16:26;;;;;;;;;7.00;7.00;;;;;;;;4996687;28;32158;-58
2023/07/07 13:18:51;;;;;;;;;7.00;7.00;;;;;;;;5001116;28;32040;-58
2023/07/07 13:21:17;;;;;;;;;8.00;7.00;;;;;;;;5001268;28;31980;-58
2023/07/07 13:23:48;;;;;;;;;6.33;5.33;;;;;;;;5001713;28;31958;-58
2023/07/07 13:26:27;;;;;;;;;7.00;7.00;;;;;;;;5000275;28;32139;-58
2023/07/07 13:28:56;;;;;;;;;7.33;7.00;;;;;;;;4999798;28;32906;-58
2023/07/07 13:31:24;;;;;;;;;6.67;6.67;;;;;;;;4999722;28;33641;-58
2023/07/07 13:33:50;;;;;;;;;7.00;6.67;;;;;;;;5001545;28;32037;-59
2023/07/07 13:36:15;;;;;;;;;6.00;5.00;;;;;;;;5001957;28;32100;-60
2023/07/07 13:38:43;;;;;;;;;5.67;5.00;;;;;;;;5003262;28;33173;-58
2023/07/07 13:41:11;;;;;;;;;8.67;7.00;;;;;;;;5005167;28;32064;-58
2023/07/07 13:43:38;;;;;;;;;6.33;6.33;;;;;;;;5004693;28;32013;-58
2023/07/07 13:46:09;;;;;;;;;5.67;5.67;;;;;;;;5004152;28;32008;-58
2023/07/07 13:48:34;;;;;;;;;6.00;5.33;;;;;;;;5003797;28;31980;-58
2023/07/07 13:51:03;;;;;;;;;6.67;5.33;;;;;;;;5004159;28;31963;-59
2023/07/07 13:53:29;;;;;;;;;9.67;9.00;;;;;;;;5004329;28;31972;-58
2023/07/07 13:55:55;;;;;;;;;6.00;6.00;;;;;;;;5004386;28;31949;-59
2023/07/07 13:58:23;;;;;;;;;8.00;6.00;;;;;;;;5003642;28;42327;-58
2023/07/07 14:00:59;;;;;;;;;6.67;6.33;;;;;;;;5002575;28;45589;-58
2023/07/07 14:03:25;;;;;;;;;6.00;5.33;;;;;;;;5001498;28;51233;-58
2023/07/07 14:05:54;;;;;;;;;7.33;7.33;;;;;;;;5004166;28;31941;-58
2023/07/07 14:08:22;;;;;;;;;6.33;6.33;;;;;;;;5004367;28;33022;-60
2023/07/07 14:10:48;;;;;;;;;7.67;7.00;;;;;;;;5003870;28;32033;-59
2023/07/07 14:13:18;;;;;;;;;7.67;6.67;;;;;;;;5004405;28;34240;-58
2023/07/07 14:16:01;;;;;;;;;6.00;5.67;;;;;;;;5003640;28;32013;-58
2023/07/07 14:18:31;;;;;;;;;5.00;5.00;;;;;;;;5003586;28;32070;-58
2023/07/07 14:20:56;;;;;;;;;6.67;6.67;;;;;;;;5003831;28;32046;-58
2023/07/07 14:23:22;;;;;;;;;6.00;6.00;;;;;;;;5002952;28;50396;-58
2023/07/07 14:25:48;;;;;;;;;7.67;6.67;;;;;;;;5021859;28;32404;-58
2023/07/07 14:28:19;;;;;;;;;7.00;6.00;;;;;;;;5025378;28;11002;-58
2023/07/07 14:31:04;;;;;;;;;7.00;7.00;;;;;;;;5021587;28;27954;-58
2023/07/07 14:33:44;;;;;;;;;5.00;5.00;;;;;;;;5023858;28;9283;-59
2023/07/07 14:36:23;;;;;;;;;6.00;5.00;;;;;;;;5025252;28;8935;-58
2023/07/07 14:38:51;;;;;;;;;5.00;5.00;;;;;;;;5024763;28;9261;-58
2023/07/07 14:41:19;;;;;;;;;8.00;8.00;;;;;;;;5024968;28;9058;-58
2023/07/07 14:43:44;;;;;;;;;8.33;8.00;;;;;;;;5024242;28;9072;-57
2023/07/07 14:46:42;;;;;;;;;6.00;5.33;;;;;;;;5024869;28;9266;-59
2023/07/07 14:49:18;;;;;;;;;8.00;7.33;;;;;;;;4980279;28;8815;-57
2023/07/07 14:51:45;;;;;;;;;5.33;5.33;;;;;;;;5024605;28;9131;-58
2023/07/07 14:54:14;;;;;;;;;9.33;7.67;;;;;;;;5025127;28;9146;-57
2023/07/07 14:56:44;;;;;;;;;7.00;6.67;;;;;;;;5024822;28;9068;-58
2023/07/07 14:59:17;;;;;;;;;4.75;4.75;;;;;;;;5023698;28;9038;-58